Time;durP1;ratioP1;P1;durP2;ratioP2;P2;SDS_P1;SDS_P2;PMS_P1;PMS_P2;Temp;Humidity;BMP_temperature;BMP_pressure;BME280_temperature;BME280_humidity;BME280_pressure;Samples;Min_cycle;Max_cycle;Signal;HPM_P1;HPM_P2
2023/05/28 00:00:08;;;;;;;0.10;0.10;;;9.20;99.90;;;;;;5063657;28;20083;-76
2023/05/28 00:02:34;;;;;;;1.25;1.00;;;9.20;99.90;;;;;;5064056;28;20474;-76
2023/05/28 00:05:00;;;;;;;2.47;2.03;;;9.30;99.90;;;;;;5063916;28;20090;-76
2023/05/28 00:07:28;;;;;;;2.67;0.95;;;9.40;99.90;;;;;;5063345;28;20861;-76
2023/05/28 00:10:00;;;;;;;1.58;0.73;;;9.10;99.90;;;;;;5063447;28;20095;-76
2023/05/28 00:12:25;;;;;;;2.17;1.65;;;9.10;99.90;;;;;;5062852;28;20130;-76
2023/05/28 00:14:52;;;;;;;5.60;2.05;;;9.10;99.90;;;;;;5063075;28;20037;-76
2023/05/28 00:17:18;;;;;;;0.10;0.10;;;9.10;99.90;;;;;;5064710;28;20109;-76
2023/05/28 00:19:44;;;;;;;0.17;0.17;;;9.00;99.90;;;;;;5066826;28;20036;-76
2023/05/28 00:22:10;;;;;;;1.00;0.73;;;9.00;99.90;;;;;;5066088;28;20111;-76
2023/05/28 00:24:36;;;;;;;1.08;0.70;;;8.90;99.90;;;;;;5066486;28;20083;-76
2023/05/28 00:27:02;;;;;;;3.92;0.80;;;8.80;99.90;;;;;;5065971;28;20076;-76
2023/05/28 00:29:29;;;;;;;0.30;0.30;;;8.90;99.90;;;;;;5066115;28;20592;-77
2023/05/28 00:31:57;;;;;;;0.43;0.20;;;8.80;99.90;;;;;;5066015;28;20068;-76
2023/05/28 00:34:23;;;;;;;0.25;0.20;;;8.80;99.90;;;;;;5066085;28;20048;-76
2023/05/28 00:36:49;;;;;;;0.00;0.00;;;8.80;99.90;;;;;;5065884;28;20052;-76
2023/05/28 00:39:16;;;;;;;0.10;0.10;;;8.80;99.90;;;;;;5065904;28;20123;-75
2023/05/28 00:41:42;;;;;;;2.30;1.38;;;8.80;99.90;;;;;;5065190;28;20044;-76
2023/05/28 00:44:11;;;;;;;11.98;2.20;;;8.90;99.90;;;;;;5066213;28;20082;-76
2023/05/28 00:46:42;;;;;;;0.40;0.38;;;8.90;99.90;;;;;;5065492;28;20049;-76
2023/05/28 00:49:10;;;;;;;1.13;0.52;;;8.90;99.90;;;;;;5065572;28;20045;-76
2023/05/28 00:51:36;;;;;;;0.38;0.38;;;8.90;99.90;;;;;;5065509;28;20054;-76
2023/05/28 00:54:05;;;;;;;8.32;1.13;;;9.00;99.90;;;;;;5065619;28;20040;-76
2023/05/28 00:56:31;;;;;;;1.60;1.15;;;9.00;99.90;;;;;;5065800;28;20107;-76
2023/05/28 00:58:59;;;;;;;0.82;0.28;;;9.00;99.90;;;;;;5065892;28;20395;-76
2023/05/28 01:01:26;;;;;;;0.00;0.00;;;9.10;99.90;;;;;;5065386;28;20582;-77
2023/05/28 01:03:52;;;;;;;4.03;1.13;;;9.10;99.90;;;;;;5063866;28;20123;-76
2023/05/28 01:06:21;;;;;;;2.30;1.50;;;9.10;99.90;;;;;;5065354;28;20104;-76
2023/05/28 01:08:47;;;;;;;1.08;0.98;;;9.10;99.90;;;;;;5064400;28;20084;-76
2023/05/28 01:11:21;;;;;;;0.28;0.28;;;9.20;99.90;;;;;;5065516;28;20463;-77
2023/05/28 01:13:47;;;;;;;3.83;2.38;;;9.30;99.90;;;;;;5066122;28;20104;-76
2023/05/28 01:16:13;;;;;;;2.42;0.28;;;9.30;99.90;;;;;;5065508;28;20062;-76
2023/05/28 01:18:40;;;;;;;1.83;0.60;;;9.30;99.90;;;;;;5065244;28;20037;-77
2023/05/28 01:21:07;;;;;;;0.63;0.63;;;9.30;99.90;;;;;;5064820;28;20384;-76
2023/05/28 01:23:47;;;;;;;2.10;1.15;;;9.40;99.90;;;;;;5064006;28;20055;-76
2023/05/28 01:26:15;;;;;;;2.45;0.95;;;9.50;99.90;;;;;;5064846;28;20090;-77
2023/05/28 01:28:45;;;;;;;0.93;0.75;;;9.40;99.90;;;;;;5064846;28;20048;-77
2023/05/28 01:31:12;;;;;;;2.85;1.45;;;9.60;99.90;;;;;;5063317;28;20052;-76
2023/05/28 01:33:41;;;;;;;1.42;1.33;;;9.40;99.90;;;;;;5064698;28;20051;-76
2023/05/28 01:36:29;;;;;;;0.10;0.10;;;9.40;99.90;;;;;;5065043;28;20049;-76
2023/05/28 01:38:58;;;;;;;1.25;0.98;;;9.50;99.90;;;;;;5064553;28;20056;-76
2023/05/28 01:41:25;;;;;;;0.08;0.08;;;9.50;99.90;;;;;;5065033;28;20044;-76
2023/05/28 01:43:52;;;;;;;0.00;0.00;;;9.50;99.90;;;;;;5064864;28;20051;-76
2023/05/28 01:46:20;;;;;;;0.00;0.00;;;9.50;99.90;;;;;;5064618;28;20044;-75
2023/05/28 01:48:45;;;;;;;0.20;0.20;;;9.50;99.90;;;;;;5064584;28;20465;-76
2023/05/28 01:51:15;;;;;;;0.40;0.40;;;9.50;99.90;;;;;;5064439;28;20109;-77
2023/05/28 01:53:40;;;;;;;0.57;0.32;;;9.50;99.90;;;;;;5064793;28;20071;-76
2023/05/28 01:56:06;;;;;;;0.75;0.55;;;9.50;99.90;;;;;;5064526;28;20090;-77
2023/05/28 01:58:32;;;;;;;0.08;0.08;;;9.50;99.90;;;;;;5064947;28;20071;-76
2023/05/28 02:01:32;;;;;;;0.10;0.10;;;9.50;99.90;;;;;;5064431;28;20155;-77
2023/05/28 02:04:00;;;;;;;0.10;0.10;;;9.50;99.90;;;;;;5064117;28;20457;-76
2023/05/28 02:06:29;;;;;;;0.57;0.52;;;9.50;99.90;;;;;;5063921;28;20048;-77
2023/05/28 02:08:54;;;;;;;0.28;0.17;;;9.60;99.90;;;;;;5064157;28;20421;-76
2023/05/28 02:11:21;;;;;;;0.10;0.10;;;9.60;99.90;;;;;;5064051;28;20124;-77
2023/05/28 02:13:48;;;;;;;1.35;1.00;;;9.60;99.90;;;;;;5063887;28;20049;-77
2023/05/28 02:16:17;;;;;;;0.57;0.20;;;9.60;99.90;;;;;;5063881;28;20044;-76
2023/05/28 02:18:44;;;;;;;0.80;0.63;;;9.60;99.90;;;;;;5064345;28;20482;-76
2023/05/28 02:21:10;;;;;;;0.00;0.00;;;9.60;99.90;;;;;;5064235;28;20044;-76
2023/05/28 02:23:43;;;;;;;4.10;1.98;;;9.60;99.90;;;;;;5063600;28;20573;-76
2023/05/28 02:26:08;;;;;;;1.25;0.43;;;9.60;99.90;;;;;;5063762;28;20109;-77
2023/05/28 02:28:34;;;;;;;0.00;0.00;;;9.60;99.90;;;;;;5064350;28;20044;-77
2023/05/28 02:31:00;;;;;;;0.38;0.20;;;9.60;99.90;;;;;;5064365;28;20037;-77
2023/05/28 02:33:25;;;;;;;0.25;0.22;;;9.60;99.90;;;;;;5064176;28;20450;-77
2023/05/28 02:35:51;;;;;;;0.20;0.20;;;9.60;99.90;;;;;;5063868;28;20044;-77
2023/05/28 02:38:17;;;;;;;0.00;0.00;;;9.50;99.90;;;;;;5062670;28;20089;-77
2023/05/28 02:40:42;;;;;;;0.13;0.13;;;9.50;99.90;;;;;;5063535;28;20036;-77
2023/05/28 02:43:08;;;;;;;0.00;0.00;;;9.50;99.90;;;;;;5064081;28;20109;-78
2023/05/28 02:45:33;;;;;;;4.75;2.28;;;9.50;99.90;;;;;;5063511;28;20045;-78
2023/05/28 02:47:59;;;;;;;1.60;1.40;;;9.60;99.90;;;;;;5063809;28;20088;-77
2023/05/28 02:50:25;;;;;;;1.70;1.45;;;9.60;99.90;;;;;;5063872;28;20052;-77
2023/05/28 02:52:50;;;;;;;0.65;0.65;;;9.60;99.90;;;;;;5063478;28;20036;-77
2023/05/28 02:55:16;;;;;;;0.43;0.43;;;9.70;99.90;;;;;;5063843;28;20052;-76
2023/05/28 02:57:41;;;;;;;2.30;0.57;;;9.70;99.90;;;;;;5063416;28;20414;-77
2023/05/28 03:00:10;;;;;;;1.45;0.77;;;9.70;99.90;;;;;;5063891;28;20047;-77
2023/05/28 03:02:36;;;;;;;0.00;0.00;;;9.70;99.90;;;;;;5063739;28;20139;-77
2023/05/28 03:05:02;;;;;;;1.50;0.85;;;9.70;99.90;;;;;;5063442;28;20131;-77
2023/05/28 03:07:31;;;;;;;0.68;0.45;;;9.60;99.90;;;;;;5063103;28;20515;-77
2023/05/28 03:09:57;;;;;;;0.82;0.73;;;9.70;99.90;;;;;;5063696;28;20052;-77
2023/05/28 03:12:23;;;;;;;0.10;0.10;;;9.70;99.90;;;;;;5063386;28;20093;-77
2023/05/28 03:14:49;;;;;;;3.17;2.13;;;9.60;99.90;;;;;;5063629;28;20400;-77
2023/05/28 03:17:15;;;;;;;10.13;2.55;;;9.70;99.90;;;;;;5064061;28;20040;-76
2023/05/28 03:19:40;;;;;;;4.13;1.45;;;9.60;99.90;;;;;;5063596;28;20056;-76
2023/05/28 03:22:06;;;;;;;0.10;0.10;;;9.60;99.90;;;;;;5063690;28;20048;-77
2023/05/28 03:24:32;;;;;;;2.92;0.98;;;9.50;99.90;;;;;;5063179;28;20224;-77
2023/05/28 03:26:59;;;;;;;1.35;0.63;;;9.50;99.90;;;;;;5063530;28;20071;-78
2023/05/28 03:29:25;;;;;;;0.00;0.00;;;9.50;99.90;;;;;;5063231;28;20052;-77
2023/05/28 03:31:51;;;;;;;0.25;0.25;;;9.50;99.90;;;;;;5063602;28;20048;-77
2023/05/28 03:34:17;;;;;;;0.60;0.43;;;9.40;99.90;;;;;;5063694;28;20045;-77
2023/05/28 03:36:42;;;;;;;0.95;0.65;;;9.40;99.90;;;;;;5062753;28;20040;-77
2023/05/28 03:39:09;;;;;;;0.30;0.28;;;9.30;99.90;;;;;;5062861;28;20051;-77
2023/05/28 03:41:36;;;;;;;1.20;1.10;;;9.30;99.90;;;;;;5062906;28;20040;-77
2023/05/28 03:44:01;;;;;;;0.28;0.28;;;9.20;99.90;;;;;;5062572;28;20049;-77
2023/05/28 03:46:27;;;;;;;0.30;0.30;;;9.20;99.90;;;;;;5062055;28;20117;-77
2023/05/28 03:48:53;;;;;;;2.92;1.63;;;9.20;99.90;;;;;;5063327;28;20080;-77
2023/05/28 03:51:19;;;;;;;0.00;0.00;;;9.10;99.90;;;;;;5063960;28;20467;-77
2023/05/28 03:53:44;;;;;;;0.30;0.30;;;9.10;99.90;;;;;;5067440;28;20487;-77
2023/05/28 03:56:10;;;;;;;3.40;0.65;;;9.00;99.90;;;;;;5067030;28;20080;-77
2023/05/28 03:58:36;;;;;;;0.43;0.43;;;9.00;99.90;;;;;;5067673;28;20048;-77
2023/05/28 04:01:01;;;;;;;0.85;0.85;;;9.00;99.90;;;;;;5066896;28;20083;-77
2023/05/28 04:03:27;;;;;;;0.38;0.38;;;9.00;99.90;;;;;;5066493;28;20495;-77
2023/05/28 04:05:52;;;;;;;0.00;0.00;;;9.00;99.90;;;;;;5066508;28;20044;-76
2023/05/28 04:08:18;;;;;;;0.68;0.55;;;9.00;99.90;;;;;;5066502;28;20402;-77
2023/05/28 04:10:44;;;;;;;2.83;0.30;;;9.00;99.90;;;;;;5066630;28;20123;-77
2023/05/28 04:13:10;;;;;;;0.10;0.10;;;9.00;99.90;;;;;;5066730;28;20473;-77
2023/05/28 04:15:35;;;;;;;2.22;0.47;;;9.00;99.90;;;;;;5066857;28;20068;-77
2023/05/28 04:18:01;;;;;;;0.90;0.75;;;9.00;99.90;;;;;;5066513;28;20125;-76
2023/05/28 04:20:27;;;;;;;1.25;0.32;;;9.10;99.90;;;;;;5066048;28;20488;-77
2023/05/28 04:22:53;;;;;;;0.03;0.03;;;9.10;99.90;;;;;;5065979;28;20048;-77
2023/05/28 04:25:18;;;;;;;0.08;0.08;;;9.20;99.90;;;;;;5066387;28;20048;-77
2023/05/28 04:27:45;;;;;;;0.10;0.03;;;9.20;99.90;;;;;;5066170;28;20494;-77
2023/05/28 04:30:11;;;;;;;0.00;0.00;;;9.30;99.90;;;;;;5065632;28;20052;-77
2023/05/28 04:32:40;;;;;;;0.25;0.20;;;9.30;99.90;;;;;;5066415;28;20045;-77
2023/05/28 04:35:08;;;;;;;0.08;0.08;;;9.40;99.90;;;;;;5065944;28;20420;-77
2023/05/28 04:37:36;;;;;;;0.32;0.32;;;9.50;99.90;;;;;;5066440;28;20056;-76
2023/05/28 04:40:03;;;;;;;1.08;0.85;;;9.60;99.90;;;;;;5065571;28;20048;-77
2023/05/28 04:42:29;;;;;;;0.43;0.28;;;9.60;99.90;;;;;;5065795;28;20084;-76
2023/05/28 04:44:55;;;;;;;0.10;0.05;;;9.70;99.90;;;;;;5066059;28;20064;-77
2023/05/28 04:47:22;;;;;;;0.22;0.22;;;9.80;99.90;;;;;;5065944;28;20402;-77
2023/05/28 04:49:48;;;;;;;1.20;0.85;;;9.90;99.90;;;;;;5065788;28;20048;-77
2023/05/28 04:52:14;;;;;;;0.20;0.20;;;10.00;99.90;;;;;;5064748;28;20056;-77
2023/05/28 04:54:40;;;;;;;0.85;0.85;;;10.10;99.90;;;;;;5066056;28;20052;-77
2023/05/28 04:57:05;;;;;;;2.08;0.98;;;10.20;99.90;;;;;;5065985;28;20056;-77
2023/05/28 04:59:33;;;;;;;0.20;0.20;;;10.30;99.90;;;;;;5065761;28;20483;-78
2023/05/28 05:01:59;;;;;;;0.00;0.00;;;10.60;99.90;;;;;;5065076;28;20399;-76
2023/05/28 05:04:25;;;;;;;11.80;2.28;;;10.80;99.90;;;;;;5065528;28;20059;-77
2023/05/28 05:06:51;;;;;;;7.57;0.98;;;11.10;99.90;;;;;;5065630;28;20044;-77
2023/05/28 05:09:16;;;;;;;0.17;0.10;;;11.40;99.90;;;;;;5065093;28;20048;-78
2023/05/28 05:11:42;;;;;;;0.00;0.00;;;11.90;99.90;;;;;;5065442;28;20085;-76
2023/05/28 05:14:07;;;;;;;1.40;0.95;;;12.40;99.90;;;;;;5066108;28;20498;-77
2023/05/28 05:16:33;;;;;;;7.95;1.45;;;13.00;99.90;;;;;;5066150;28;20036;-78
2023/05/28 05:18:59;;;;;;;1.85;0.77;;;13.20;1.00;;;;;;5065180;28;20049;-77
2023/05/28 05:21:24;;;;;;;1.48;1.38;;;13.70;99.90;;;;;;5065641;28;20040;-78
2023/05/28 05:23:50;;;;;;;0.00;0.00;;;13.60;1.00;;;;;;5065826;28;20450;-77
2023/05/28 05:26:19;;;;;;;4.60;2.03;;;13.70;1.00;;;;;;5064890;28;20049;-78
2023/05/28 05:28:45;;;;;;;0.10;0.10;;;13.70;99.90;;;;;;5063577;28;20048;-76
2023/05/28 05:31:11;;;;;;;2.40;0.75;;;13.70;99.90;;;;;;5063330;28;20125;-76
2023/05/28 05:33:37;;;;;;;0.68;0.43;;;13.50;99.90;;;;;;5064165;28;20306;-77
2023/05/28 05:36:03;;;;;;;0.77;0.63;;;13.50;99.90;;;;;;5063586;28;20041;-77
2023/05/28 05:38:30;;;;;;;0.22;0.22;;;13.20;1.00;;;;;;5063613;28;20127;-75
2023/05/28 05:40:56;;;;;;;0.75;0.50;;;13.30;1.00;;;;;;5063370;28;20093;-75
2023/05/28 05:43:22;;;;;;;6.55;1.27;;;13.10;99.90;;;;;;5063846;28;20052;-76
2023/05/28 05:45:47;;;;;;;0.65;0.55;;;13.20;99.90;;;;;;5061576;28;20079;-76
2023/05/28 05:48:13;;;;;;;0.00;0.00;;;13.30;1.00;;;;;;5063593;28;20080;-77
2023/05/28 05:50:54;;;;;;;1.25;0.57;;;13.70;99.90;;;;;;5063492;28;20080;-78
2023/05/28 05:53:21;;;;;;;0.25;0.25;;;14.50;99.90;;;;;;5063265;28;20040;-76
2023/05/28 05:55:47;;;;;;;1.02;0.47;;;15.40;99.90;;;;;;5062634;28;20119;-76
2023/05/28 05:58:14;;;;;;;0.77;0.35;;;16.00;99.90;;;;;;5062857;28;20132;-77
2023/05/28 06:00:40;;;;;;;0.20;0.20;;;16.60;99.90;;;;;;5062774;28;20135;-76
2023/05/28 06:03:07;;;;;;;0.75;0.75;;;17.10;99.90;;;;;;5062699;28;20110;-76
2023/05/28 06:05:35;;;;;;;0.00;0.00;;;17.10;84.40;;;;;;5062826;28;20450;-76
2023/05/28 06:08:04;;;;;;;2.20;1.10;;;17.40;50.00;;;;;;5062892;28;20037;-76
2023/05/28 06:10:31;;;;;;;1.20;0.93;;;17.70;17.50;;;;;;5063185;28;20359;-76
2023/05/28 06:13:00;;;;;;;0.20;0.20;;;17.80;1.00;;;;;;5062670;28;20128;-76
2023/05/28 06:15:27;;;;;;;0.40;0.40;;;18.10;1.00;;;;;;5062230;28;20724;-76
2023/05/28 06:17:53;;;;;;;0.38;0.38;;;18.40;1.00;;;;;;5062652;28;20088;-75
2023/05/28 06:20:19;;;;;;;1.17;1.00;;;18.60;1.00;;;;;;5062584;28;20434;-76
2023/05/28 06:22:45;;;;;;;0.40;0.30;;;18.80;1.00;;;;;;5062518;28;20058;-76
2023/05/28 06:25:11;;;;;;;0.75;0.75;;;19.00;1.00;;;;;;5062138;28;20139;-76
2023/05/28 06:27:37;;;;;;;1.10;0.50;;;19.30;1.00;;;;;;5062037;28;20128;-76
2023/05/28 06:30:04;;;;;;;0.77;0.47;;;19.30;1.00;;;;;;5062154;28;20115;-76
2023/05/28 06:32:31;;;;;;;1.05;0.95;;;19.50;1.00;;;;;;5061128;28;20053;-76
2023/05/28 06:34:57;;;;;;;1.80;0.47;;;19.70;1.00;;;;;;5062561;28;20411;-76
2023/05/28 06:37:22;;;;;;;1.23;0.82;;;20.00;99.90;;;;;;5062407;28;20053;-76
2023/05/28 06:39:48;;;;;;;0.55;0.50;;;20.00;99.90;;;;;;5062070;28;20040;-76
2023/05/28 06:42:14;;;;;;;0.25;0.25;;;20.10;99.90;;;;;;5062419;28;20663;-76
2023/05/28 06:44:40;;;;;;;0.63;0.57;;;20.20;99.90;;;;;;5062236;28;20081;-76
2023/05/28 06:47:05;;;;;;;0.50;0.25;;;20.20;99.90;;;;;;5062249;28;20855;-76
2023/05/28 06:49:31;;;;;;;1.95;0.40;;;20.50;99.90;;;;;;5062684;28;20086;-76
2023/05/28 06:51:57;;;;;;;0.77;0.63;;;20.80;99.90;;;;;;5062669;28;20051;-76
2023/05/28 06:54:23;;;;;;;0.80;0.65;;;21.20;99.90;;;;;;5061890;28;20387;-76
2023/05/28 06:56:49;;;;;;;0.20;0.17;;;21.00;99.90;;;;;;5062115;28;20087;-76
2023/05/28 06:59:14;;;;;;;0.60;0.55;;;21.10;99.90;;;;;;5062008;28;20047;-76
2023/05/28 07:01:40;;;;;;;0.38;0.38;;;21.30;99.90;;;;;;5062164;28;20466;-76
2023/05/28 07:04:05;;;;;;;0.90;0.50;;;21.50;99.90;;;;;;5061638;28;20057;-76
2023/05/28 07:06:32;;;;;;;0.73;0.73;;;21.80;99.90;;;;;;5061963;28;20139;-76
2023/05/28 07:08:58;;;;;;;0.90;0.60;;;22.00;99.90;;;;;;5062038;28;20052;-76
2023/05/28 07:11:23;;;;;;;2.08;1.00;;;22.30;99.90;;;;;;5061631;28;20441;-76
2023/05/28 07:13:49;;;;;;;0.63;0.57;;;21.90;99.90;;;;;;5061702;28;20047;-76
2023/05/28 07:16:15;;;;;;;0.38;0.32;;;21.90;99.90;;;;;;5062024;28;20389;-76
2023/05/28 07:18:41;;;;;;;0.43;0.30;;;22.00;99.90;;;;;;5061864;28;20044;-76
2023/05/28 07:21:06;;;;;;;0.52;0.40;;;22.20;99.90;;;;;;5061787;28;20044;-76
2023/05/28 07:23:32;;;;;;;5.03;1.80;;;22.10;99.90;;;;;;5061617;28;20045;-76
2023/05/28 07:25:58;;;;;;;1.65;0.90;;;22.40;99.90;;;;;;5062476;28;20044;-76
2023/05/28 07:28:23;;;;;;;0.38;0.38;;;23.20;99.90;;;;;;5065848;28;20487;-76
2023/05/28 07:30:49;;;;;;;0.73;0.63;;;23.30;99.90;;;;;;5065926;28;20461;-76
2023/05/28 07:33:15;;;;;;;1.02;0.90;;;23.00;99.90;;;;;;5065899;28;20094;-77
2023/05/28 07:35:41;;;;;;;6.45;1.95;;;23.40;99.90;;;;;;5066097;28;20068;-76
2023/05/28 07:38:10;;;;;;;0.75;0.63;;;23.70;99.90;;;;;;5065870;28;20105;-76
2023/05/28 07:40:36;;;;;;;0.52;0.52;;;23.00;99.90;;;;;;5065784;28;20094;-76
2023/05/28 07:43:02;;;;;;;0.50;0.30;;;22.90;99.90;;;;;;5065501;28;20059;-76
2023/05/28 07:45:27;;;;;;;1.08;0.60;;;22.90;99.90;;;;;;5065547;28;20127;-76
2023/05/28 07:47:53;;;;;;;4.68;0.50;;;23.30;99.90;;;;;;5065867;28;20045;-76
2023/05/28 07:50:18;;;;;;;0.47;0.43;;;23.20;99.90;;;;;;5065596;28;20417;-76
2023/05/28 07:52:45;;;;;;;0.10;0.10;;;23.60;99.90;;;;;;5065358;28;20047;-76
2023/05/28 07:55:11;;;;;;;0.65;0.60;;;24.20;99.90;;;;;;5065649;28;20131;-77
2023/05/28 07:57:37;;;;;;;0.93;0.82;;;24.50;99.90;;;;;;5065628;28;20115;-77
2023/05/28 08:00:06;;;;;;;0.50;0.32;;;24.00;99.90;;;;;;5065544;28;20048;-77
2023/05/28 08:02:33;;;;;;;0.32;0.22;;;24.00;99.90;;;;;;5065426;28;20048;-77
2023/05/28 08:05:00;;;;;;;0.80;0.43;;;24.30;99.90;;;;;;5065190;28;20067;-77
2023/05/28 08:07:27;;;;;;;0.47;0.22;;;24.40;99.90;;;;;;5065010;28;20048;-77
2023/05/28 08:09:53;;;;;;;0.20;0.20;;;24.60;99.90;;;;;;5065128;28;20113;-77
2023/05/28 08:12:19;;;;;;;1.35;0.47;;;24.80;99.90;;;;;;5065334;28;20501;-76
2023/05/28 08:14:45;;;;;;;0.15;0.10;;;25.30;99.90;;;;;;5064980;28;20509;-77
2023/05/28 08:17:10;;;;;;;0.35;0.17;;;25.10;99.90;;;;;;5065175;28;20098;-76
2023/05/28 08:19:36;;;;;;;2.35;1.55;;;24.60;99.90;;;;;;5065623;28;20053;-76
2023/05/28 08:22:02;;;;;;;0.82;0.60;;;24.40;99.90;;;;;;5064880;28;20048;-77
2023/05/28 08:24:28;;;;;;;2.85;1.33;;;24.70;99.90;;;;;;5065320;28;20056;-76
2023/05/28 08:26:53;;;;;;;0.98;0.50;;;24.80;99.90;;;;;;5064895;28;20048;-76
2023/05/28 08:29:19;;;;;;;1.75;0.65;;;24.90;99.90;;;;;;5064962;28;20049;-76
2023/05/28 08:31:45;;;;;;;0.50;0.50;;;25.20;99.90;;;;;;5064996;28;20036;-76
2023/05/28 08:34:10;;;;;;;1.70;0.70;;;24.80;98.50;;;;;;5065154;28;20066;-76
2023/05/28 08:36:36;;;;;;;1.25;0.80;;;24.80;99.90;;;;;;5064575;28;20560;-76
2023/05/28 08:39:02;;;;;;;0.47;0.30;;;25.40;99.90;;;;;;5064255;28;20060;-76
2023/05/28 08:41:27;;;;;;;0.68;0.68;;;26.10;99.90;;;;;;5065182;28;20048;-76
2023/05/28 08:43:53;;;;;;;0.52;0.43;;;25.70;99.90;;;;;;5064891;28;20412;-76
2023/05/28 08:46:19;;;;;;;0.43;0.22;;;25.50;97.50;;;;;;5064524;28;20491;-76
2023/05/28 08:48:46;;;;;;;1.33;0.55;;;25.00;90.10;;;;;;5064284;28;20049;-76
2023/05/28 08:51:13;;;;;;;0.13;0.13;;;25.20;89.00;;;;;;5064228;28;20102;-76
2023/05/28 08:53:47;;;;;;;3.30;1.25;;;25.60;96.00;;;;;;5064556;28;20044;-76
2023/05/28 08:56:13;;;;;;;0.20;0.15;;;26.10;98.50;;;;;;5064391;28;20079;-76
2023/05/28 08:58:39;;;;;;;1.33;0.65;;;27.00;99.90;;;;;;5064206;28;20048;-76
2023/05/28 09:01:08;;;;;;;0.43;0.40;;;26.50;93.10;;;;;;5064077;28;20407;-76
2023/05/28 09:03:35;;;;;;;3.03;0.98;;;25.80;87.40;;;;;;5064095;28;20108;-76
2023/05/28 09:06:01;;;;;;;3.97;0.90;;;25.70;80.20;;;;;;5064145;28;20588;-76
2023/05/28 09:08:27;;;;;;;0.22;0.22;;;25.40;73.60;;;;;;5064154;28;20045;-76
2023/05/28 09:10:56;;;;;;;6.72;1.20;;;25.30;67.10;;;;;;5064137;28;20036;-76
2023/05/28 09:13:21;;;;;;;1.45;1.17;;;25.30;61.90;;;;;;5064011;28;20088;-76
2023/05/28 09:15:51;;;;;;;1.08;0.60;;;25.90;75.40;;;;;;5063848;28;20059;-76
2023/05/28 09:18:21;;;;;;;2.10;0.63;;;25.40;62.50;;;;;;5064113;28;20179;-76
2023/05/28 09:20:48;;;;;;;0.35;0.35;;;25.70;70.20;;;;;;5064036;28;20048;-76
2023/05/28 09:23:17;;;;;;;0.10;0.10;;;26.10;79.60;;;;;;5063865;28;20140;-76
2023/05/28 09:25:44;;;;;;;6.75;1.58;;;26.00;68.50;;;;;;5064135;28;20151;-76
2023/05/28 09:28:14;;;;;;;0.10;0.10;;;25.70;60.50;;;;;;5063715;28;20094;-76
2023/05/28 09:30:41;;;;;;;1.85;0.93;;;26.10;66.10;;;;;;5063614;28;20048;-76
2023/05/28 09:33:08;;;;;;;0.73;0.60;;;26.00;62.90;;;;;;5063821;28;20106;-76
2023/05/28 09:35:35;;;;;;;1.00;0.80;;;26.50;82.60;;;;;;5063787;28;20135;-76
2023/05/28 09:38:11;;;;;;;3.13;1.63;;;26.80;90.80;;;;;;5063338;28;20060;-76
2023/05/28 09:40:40;;;;;;;0.32;0.32;;;26.80;77.40;;;;;;5063244;28;20052;-76
2023/05/28 09:43:07;;;;;;;0.00;0.00;;;27.00;80.10;;;;;;5063202;28;20056;-75
2023/05/28 09:45:34;;;;;;;0.47;0.32;;;26.70;71.30;;;;;;5063111;28;20537;-75
2023/05/28 09:47:59;;;;;;;5.88;1.40;;;27.00;69.40;;;;;;5063058;28;20480;-76
2023/05/28 09:50:25;;;;;;;3.33;1.52;;;26.60;56.20;;;;;;5063367;28;20071;-76
2023/05/28 09:52:56;;;;;;;1.77;1.10;;;26.70;67.10;;;;;;5063291;28;20127;-76
2023/05/28 09:55:25;;;;;;;1.15;0.82;;;26.20;40.70;;;;;;5063179;28;20044;-76
2023/05/28 09:58:04;;;;;;;1.27;1.10;;;25.80;22.50;;;;;;5063691;28;20044;-75
2023/05/28 10:00:42;;;;;;;0.68;0.50;;;25.50;17.50;;;;;;5063567;28;20079;-76
2023/05/28 10:03:26;;;;;;;1.38;0.50;;;25.50;21.00;;;;;;5063488;28;20053;-76
2023/05/28 10:05:56;;;;;;;3.95;1.90;;;25.40;28.10;;;;;;5063255;28;20055;-76
2023/05/28 10:08:24;;;;;;;0.70;0.70;;;25.70;30.30;;;;;;5062770;28;20044;-76
2023/05/28 10:10:53;;;;;;;3.65;1.45;;;25.20;17.60;;;;;;5063008;28;20045;-76
2023/05/28 10:13:19;;;;;;;1.23;0.95;;;25.00;15.10;;;;;;5062703;28;20053;-76
2023/05/28 10:15:45;;;;;;;0.82;0.38;;;24.80;1.00;;;;;;5062912;28;20040;-76
2023/05/28 10:18:14;;;;;;;4.72;0.93;;;24.60;1.00;;;;;;5063106;28;20521;-76
2023/05/28 10:20:40;;;;;;;0.32;0.30;;;24.20;1.00;;;;;;5062478;28;20056;-76
2023/05/28 10:23:07;;;;;;;18.30;1.58;;;24.30;1.00;;;;;;5062473;28;20128;-76
2023/05/28 10:25:33;;;;;;;1.55;1.00;;;23.90;2.60;;;;;;5062707;28;20407;-76
2023/05/28 10:28:02;;;;;;;0.85;0.80;;;24.40;1.00;;;;;;5062342;28;20045;-76
2023/05/28 10:30:33;;;;;;;0.85;0.75;;;24.40;1.00;;;;;;5062699;28;20655;-76
2023/05/28 10:32:59;;;;;;;1.80;0.90;;;24.20;1.00;;;;;;5062571;28;21001;-76
2023/05/28 10:35:24;;;;;;;0.95;0.82;;;23.90;1.00;;;;;;5062537;28;20044;-76
2023/05/28 10:37:50;;;;;;;1.00;0.63;;;24.00;1.00;;;;;;5062896;28;20121;-76
2023/05/28 10:40:26;;;;;;;0.28;0.28;;;24.00;1.00;;;;;;5062388;28;20048;-76
2023/05/28 10:42:51;;;;;;;;;;;24.10;1.00;;;;;;5062882;28;20044;-75
2023/05/28 10:45:17;;;;;;;;;;;24.00;1.00;;;;;;5061689;28;19931;-76
2023/05/28 10:47:52;;;;;;;1.40;0.47;;;24.10;1.00;;;;;;5062493;28;19947;-76
2023/05/28 10:50:19;;;;;;;0.40;0.32;;;24.00;1.00;;;;;;5062475;28;20706;-76
2023/05/28 10:53:05;;;;;;;0.90;0.75;;;24.30;1.00;;;;;;5062356;28;20067;-75
2023/05/28 10:55:47;;;;;;;1.55;1.25;;;23.90;1.00;;;;;;5062392;28;20071;-76
2023/05/28 10:58:42;;;;;;;2.40;1.05;;;23.70;1.00;;;;;;5062211;28;20545;-76
2023/05/28 11:01:11;;;;;;;1.55;0.90;;;23.70;1.00;;;;;;5062082;28;20045;-75
2023/05/28 11:03:52;;;;;;;0.98;0.88;;;23.90;1.00;;;;;;5062484;28;20208;-76
2023/05/28 11:06:18;;;;;;;1.20;0.73;;;24.10;1.00;;;;;;5061961;28;20048;-76
2023/05/28 11:08:46;;;;;;;1.45;0.85;;;24.00;1.00;;;;;;5061784;28;20052;-76
2023/05/28 11:11:13;;;;;;;1.23;0.70;;;24.10;1.00;;;;;;5062296;28;20120;-76
2023/05/28 11:13:45;;;;;;;1.40;0.32;;;24.20;1.00;;;;;;5062051;28;20102;-76
2023/05/28 11:16:12;;;;;;;0.77;0.50;;;24.20;1.00;;;;;;5062107;28;20456;-75
2023/05/28 11:18:38;;;;;;;0.80;0.50;;;24.30;1.00;;;;;;5062065;28;20044;-75
2023/05/28 11:21:11;;;;;;;2.05;0.98;;;24.40;1.00;;;;;;5061908;28;20044;-76
2023/05/28 11:23:37;;;;;;;2.38;1.10;;;24.60;1.00;;;;;;5062168;28;20402;-76
2023/05/28 11:26:04;;;;;;;1.95;0.70;;;25.00;5.90;;;;;;5061598;28;20090;-76
2023/05/28 11:28:30;;;;;;;4.07;0.68;;;25.30;11.40;;;;;;5061678;28;20044;-76
2023/05/28 11:30:58;;;;;;;0.60;0.45;;;25.20;1.00;;;;;;5061808;28;20119;-76
2023/05/28 11:33:27;;;;;;;1.58;0.90;;;25.50;1.00;;;;;;5062002;28;20127;-76
2023/05/28 11:36:00;;;;;;;0.30;0.30;;;25.80;1.00;;;;;;5061457;28;20483;-76
2023/05/28 11:38:26;;;;;;;2.03;1.08;;;26.00;7.00;;;;;;5062154;28;20402;-76
2023/05/28 11:41:01;;;;;;;2.72;0.75;;;26.30;1.00;;;;;;5061984;28;20041;-76
2023/05/28 11:43:27;;;;;;;0.20;0.20;;;26.60;7.60;;;;;;5062453;28;20059;-76
2023/05/28 11:46:00;;;;;;;0.85;0.63;;;26.80;12.00;;;;;;5061786;28;20044;-76
2023/05/28 11:48:28;;;;;;;0.25;0.22;;;27.10;18.10;;;;;;5061409;28;20572;-76
2023/05/28 11:51:00;;;;;;;0.50;0.50;;;27.30;20.00;;;;;;5061753;28;20087;-75
2023/05/28 11:53:38;;;;;;;0.38;0.28;;;27.30;23.10;;;;;;5061411;28;20540;-76
2023/05/28 11:56:05;;;;;;;2.97;0.82;;;28.00;44.60;;;;;;5061534;28;20232;-76
2023/05/28 11:58:31;;;;;;;0.20;0.20;;;27.90;37.30;;;;;;5061566;28;20044;-76
2023/05/28 12:00:57;;;;;;;2.28;1.27;;;28.20;1.00;;;;;;5061540;28;20376;-75
2023/05/28 12:03:26;;;;;;;0.45;0.40;;;28.40;5.70;;;;;;5061398;28;20075;-77
2023/05/28 12:05:51;;;;;;;0.22;0.20;;;27.90;1.00;;;;;;5061652;28;20052;-76
2023/05/28 12:08:18;;;;;;;0.20;0.15;;;27.80;1.00;;;;;;5061782;28;20048;-76
2023/05/28 12:10:44;;;;;;;0.52;0.32;;;28.10;5.00;;;;;;5061405;28;20048;-76
2023/05/28 12:13:12;;;;;;;0.73;0.65;;;27.60;1.00;;;;;;5063549;28;20055;-76
2023/05/28 12:15:38;;;;;;;1.27;0.95;;;26.90;1.00;;;;;;5064763;28;20561;-76
2023/05/28 12:18:04;;;;;;;0.25;0.25;;;27.20;1.00;;;;;;5064947;28;20044;-76
2023/05/28 12:20:41;;;;;;;0.28;0.20;;;27.00;1.00;;;;;;5065024;28;20102;-76
2023/05/28 12:23:07;;;;;;;2.28;0.55;;;27.70;6.50;;;;;;5064732;28;20079;-76
2023/05/28 12:25:42;;;;;;;1.38;0.45;;;27.00;1.00;;;;;;5064766;28;20118;-77
2023/05/28 12:28:08;;;;;;;1.38;0.85;;;27.10;1.00;;;;;;5064595;28;20062;-77
2023/05/28 12:30:34;;;;;;;2.22;1.08;;;27.80;8.30;;;;;;5064877;28;20048;-77
2023/05/28 12:33:01;;;;;;;0.38;0.13;;;27.90;15.00;;;;;;5065188;28;20376;-77
2023/05/28 12:35:26;;;;;;;2.10;1.35;;;28.30;20.00;;;;;;5065212;28;20079;-77
2023/05/28 12:37:52;;;;;;;0.47;0.35;;;27.70;10.50;;;;;;5064875;28;20080;-77
2023/05/28 12:40:17;;;;;;;1.27;1.02;;;27.60;10.40;;;;;;5064446;28;20040;-77
2023/05/28 12:42:43;;;;;;;0.47;0.32;;;27.30;4.10;;;;;;5064640;28;20048;-77
2023/05/28 12:45:09;;;;;;;1.08;0.35;;;27.40;8.50;;;;;;5064501;28;20044;-77
2023/05/28 12:47:35;;;;;;;12.68;0.98;;;27.70;18.80;;;;;;5064733;28;20059;-77
2023/05/28 12:50:00;;;;;;;5.15;0.75;;;27.20;13.20;;;;;;5064504;28;20127;-77
2023/05/28 12:52:26;;;;;;;0.20;0.20;;;26.50;5.30;;;;;;5064493;28;20481;-77